Heraklion, Greece

8:17 PM EEST on July 26, 2014 (GMT +0300)
Nikos Kazantzakis (LGIR) Elev 128 ft | 35.34 °N, 25.17 °E | Change Station

Current weather conditions updated 1 hour ago

Partly Cloudy
Partly Cloudy
82 °F
Feels Like 87 °F
N
21
Wind Variable Wind from NW

Tomorrow is forecast to be nearly the same temperature as today.

Today
High -- | Low -- °F
--% Chance of Precip.
Yesterday
High -- | Low -- °F
Precip. -- in
6:23 AM 8:27 PM
Waning Crescent, 0% visible
Pressure 29.80 in
Visibility 6.2 miles
Clouds Few 2500 ft
Heat Index 87 °F
Dew Point 72 °F
Humidity 70%
Rainfall 0.00 in
Snow Depth Not available.
UV 1 out of 12
Pollen Not available.
Air Quality Not available.
Flu Activity Not available.
METAR LGIR 261550Z 32018KT 9999 FEW025 28/22 Q1009

More Conditions Fewer Conditions

Pressure 29.80 in
Visibility 6.2 miles
Clouds Few 2500 ft
Heat Index 87 °F
Dew Point 72 °F
Humidity 70%
Rainfall 0.00 in
Snow Depth Not available.
UV 1 out of 12
Pollen Not available.
Air Quality Not available.
Flu Activity Not available.
METAR LGIR 261550Z 32018KT 9999 FEW025 28/22 Q1009

More Conditions Fewer Conditions

10-Day Weather Forecast

Almanac

Astronomy

Jul. 26, 2014 Rise Set
Actual Time 6:23 AM EEST 8:27 PM EEST
Civil Twilight 5:54 AM EEST 8:56 PM EEST
Nautical Twilight 5:20 AM EEST 9:30 PM EEST
Astronomical Twilight 4:42 AM EEST 10:07 PM EEST
Moon 5:56 AM EEST 7:53 PM EEST
Length of Visible Light 15h 01m
Length of Day
14h 04m
Tomorrow will be 1m 30s shorter.
Waning Crescent, 0% of the Moon is Illuminated
Today
Waning Crescent
Jul 26
New
Aug 3
First Quarter
Aug 10
Full
Aug 17
Last Quarter

Today's Extremes

Country Highs Country Lows

Community

WunderPhotos

Upload Photos

1,737,638 photos uploaded!

Nearby

Snow Depth

Not available.

Earthquake Activity

City Distance Mag. Time & Date
No recent earthquake activity has been reported nearby.
Minimum magnitude displayed is 2.5.

Coastal Water Temperatures

Place Temperature
No Stations Reporting

Nearby Weather Stations

Station Location Temp. Heat Index Dew Point Humidity Wind Precip. Elev Updated Type
Atlantis Hotel / S.N.Paritsis, Heraklion 81.6 °F 84 °F 66 °F 60% NNW  at  7.0 mph 0.00 in / hr 75 ft 8:06 PM EEST Normal
Studio 19 FM / Iraklio, Heraklion 82.8 °F 85 °F 65 °F 55% North  at  8.3 mph 0.00 in / hr 98 ft 8:14 PM EEST Normal
macnick's, near Pantanassa, %u03A0%u03B1%u03BD%u03C4%u03AC%u03BD%u03B1%u03C3%u03C3%u03B1 83.0 °F 84 °F 62 °F 50% West  at  2.0 mph 0.00 in / hr 115 ft 8:07 PM EEST Normal
Stavrakia, Heraklion 80.1 °F 81 °F 58 °F 47% North  at  11.8 mph 0.00 in / hr 791 ft 8:17 PM EEST Rapid Fire
mountain village, Kamares, Crete 79.3 °F 80 °F 56 °F 45% NNE  at  0.2 mph 0.00 in / hr 1883 ft 8:17 PM EEST Rapid Fire

Show More Stations Show Fewer Stations